sensor_id;sensor_type;location;lat;lon;timestamp;temperature;humidity
46562;DHT22;32289;42.688;23.330;2022-08-01T00:01:16;20.00;85.70
46562;DHT22;32289;42.688;23.330;2022-08-01T00:04:57;20.00;85.90
46562;DHT22;32289;42.688;23.330;2022-08-01T00:08:37;19.90;84.70
46562;DHT22;32289;42.688;23.330;2022-08-01T00:12:18;19.90;85.40
46562;DHT22;32289;42.688;23.330;2022-08-01T00:15:59;19.80;85.40
46562;DHT22;32289;42.688;23.330;2022-08-01T00:19:39;19.90;85.00
46562;DHT22;32289;42.688;23.330;2022-08-01T00:23:20;19.80;84.30
46562;DHT22;32289;42.688;23.330;2022-08-01T00:27:01;19.80;85.90
46562;DHT22;32289;42.688;23.330;2022-08-01T00:30:41;19.30;91.20
46562;DHT22;32289;42.688;23.330;2022-08-01T00:34:22;18.90;93.40
46562;DHT22;32289;42.688;23.330;2022-08-01T00:38:03;18.60;95.70
46562;DHT22;32289;42.688;23.330;2022-08-01T00:41:43;18.40;96.80
46562;DHT22;32289;42.688;23.330;2022-08-01T00:45:24;18.30;97.10
46562;DHT22;32289;42.688;23.330;2022-08-01T00:49:06;18.20;97.20
46562;DHT22;32289;42.688;23.330;2022-08-01T00:52:48;18.20;97.60
46562;DHT22;32289;42.688;23.330;2022-08-01T00:56:29;18.20;97.40
46562;DHT22;32289;42.688;23.330;2022-08-01T01:00:10;18.30;97.50
46562;DHT22;32289;42.688;23.330;2022-08-01T01:03:52;18.30;97.50
46562;DHT22;32289;42.688;23.330;2022-08-01T01:15:46;18.20;97.30
46562;DHT22;32289;42.688;23.330;2022-08-01T01:19:30;18.30;97.20
46562;DHT22;32289;42.688;23.330;2022-08-01T01:27:39;18.30;97.60
46562;DHT22;32289;42.688;23.330;2022-08-01T01:31:24;18.30;97.60
46562;DHT22;32289;42.688;23.330;2022-08-01T01:35:09;18.20;97.30
46562;DHT22;32289;42.688;23.330;2022-08-01T01:38:51;18.30;96.90
46562;DHT22;32289;42.688;23.330;2022-08-01T01:42:33;18.30;96.90
46562;DHT22;32289;42.688;23.330;2022-08-01T01:46:17;18.30;96.40
46562;DHT22;32289;42.688;23.330;2022-08-01T01:50:00;18.10;96.10
46562;DHT22;32289;42.688;23.330;2022-08-01T01:53:42;18.00;95.10
46562;DHT22;32289;42.688;23.330;2022-08-01T01:57:24;18.10;94.60
46562;DHT22;32289;42.688;23.330;2022-08-01T02:01:04;18.20;93.10
46562;DHT22;32289;42.688;23.330;2022-08-01T02:04:48;18.20;91.60
46562;DHT22;32289;42.688;23.330;2022-08-01T02:08:30;18.30;91.20
46562;DHT22;32289;42.688;23.330;2022-08-01T02:12:12;18.30;89.70
46562;DHT22;32289;42.688;23.330;2022-08-01T02:15:53;18.30;89.60
46562;DHT22;32289;42.688;23.330;2022-08-01T02:19:34;18.20;89.80
46562;DHT22;32289;42.688;23.330;2022-08-01T02:23:15;18.20;90.20
46562;DHT22;32289;42.688;23.330;2022-08-01T02:27:00;18.20;88.40
46562;DHT22;32289;42.688;23.330;2022-08-01T02:30:46;18.20;87.00
46562;DHT22;32289;42.688;23.330;2022-08-01T02:34:29;18.10;86.30
46562;DHT22;32289;42.688;23.330;2022-08-01T02:38:13;18.10;86.10
46562;DHT22;32289;42.688;23.330;2022-08-01T02:42:00;18.20;85.60
46562;DHT22;32289;42.688;23.330;2022-08-01T02:45:48;18.00;89.30
46562;DHT22;32289;42.688;23.330;2022-08-01T02:49:36;18.10;91.30
46562;DHT22;32289;42.688;23.330;2022-08-01T02:53:20;17.90;93.40
46562;DHT22;32289;42.688;23.330;2022-08-01T02:57:03;17.80;94.20
46562;DHT22;32289;42.688;23.330;2022-08-01T03:00:45;17.70;95.40
46562;DHT22;32289;42.688;23.330;2022-08-01T03:04:26;17.70;95.60
46562;DHT22;32289;42.688;23.330;2022-08-01T03:08:09;17.60;96.10
46562;DHT22;32289;42.688;23.330;2022-08-01T03:11:50;17.50;96.10
46562;DHT22;32289;42.688;23.330;2022-08-01T03:15:35;17.30;96.80
46562;DHT22;32289;42.688;23.330;2022-08-01T03:19:18;17.20;96.80
46562;DHT22;32289;42.688;23.330;2022-08-01T03:23:03;17.30;96.00
46562;DHT22;32289;42.688;23.330;2022-08-01T03:26:45;17.10;96.50
46562;DHT22;32289;42.688;23.330;2022-08-01T03:30:27;17.10;96.50
46562;DHT22;32289;42.688;23.330;2022-08-01T03:34:08;16.90;97.20
46562;DHT22;32289;42.688;23.330;2022-08-01T03:37:52;17.20;96.40
46562;DHT22;32289;42.688;23.330;2022-08-01T03:41:39;17.30;96.30
46562;DHT22;32289;42.688;23.330;2022-08-01T03:45:41;17.20;96.10
46562;DHT22;32289;42.688;23.330;2022-08-01T03:49:29;17.20;96.00
46562;DHT22;32289;42.688;23.330;2022-08-01T03:53:11;17.20;95.70
46562;DHT22;32289;42.688;23.330;2022-08-01T03:56:52;17.20;95.60
46562;DHT22;32289;42.688;23.330;2022-08-01T04:00:33;17.20;97.30
46562;DHT22;32289;42.688;23.330;2022-08-01T04:04:15;17.00;98.80
46562;DHT22;32289;42.688;23.330;2022-08-01T04:07:56;16.80;99.00
46562;DHT22;32289;42.688;23.330;2022-08-01T04:11:37;16.90;99.10
46562;DHT22;32289;42.688;23.330;2022-08-01T04:15:18;17.20;98.40
46562;DHT22;32289;42.688;23.330;2022-08-01T04:19:01;17.30;97.80
46562;DHT22;32289;42.688;23.330;2022-08-01T04:22:42;17.30;97.90
46562;DHT22;32289;42.688;23.330;2022-08-01T04:26:24;17.60;97.10
46562;DHT22;32289;42.688;23.330;2022-08-01T04:30:07;17.50;96.80
46562;DHT22;32289;42.688;23.330;2022-08-01T04:33:49;17.40;97.40
46562;DHT22;32289;42.688;23.330;2022-08-01T04:37:31;17.40;97.10
46562;DHT22;32289;42.688;23.330;2022-08-01T04:41:14;19.60;90.60
46562;DHT22;32289;42.688;23.330;2022-08-01T04:44:56;20.00;86.20
46562;DHT22;32289;42.688;23.330;2022-08-01T04:48:38;18.50;92.80
46562;DHT22;32289;42.688;23.330;2022-08-01T04:52:19;18.20;94.30
46562;DHT22;32289;42.688;23.330;2022-08-01T04:56:03;18.50;93.50
46562;DHT22;32289;42.688;23.330;2022-08-01T04:59:44;19.30;90.50
46562;DHT22;32289;42.688;23.330;2022-08-01T05:03:25;18.90;91.60
46562;DHT22;32289;42.688;23.330;2022-08-01T05:07:06;22.10;75.80
46562;DHT22;32289;42.688;23.330;2022-08-01T05:10:47;23.30;68.60
46562;DHT22;32289;42.688;23.330;2022-08-01T05:14:28;24.80;63.90
46562;DHT22;32289;42.688;23.330;2022-08-01T05:18:12;25.10;61.90
46562;DHT22;32289;42.688;23.330;2022-08-01T05:21:52;26.00;60.00
46562;DHT22;32289;42.688;23.330;2022-08-01T05:25:33;26.20;58.30
46562;DHT22;32289;42.688;23.330;2022-08-01T05:29:14;26.30;56.60
46562;DHT22;32289;42.688;23.330;2022-08-01T05:32:55;26.40;55.50
46562;DHT22;32289;42.688;23.330;2022-08-01T05:36:36;26.70;54.60
46562;DHT22;32289;42.688;23.330;2022-08-01T05:40:18;26.90;53.90
46562;DHT22;32289;42.688;23.330;2022-08-01T05:43:58;27.20;54.70
46562;DHT22;32289;42.688;23.330;2022-08-01T05:47:39;27.10;52.90
46562;DHT22;32289;42.688;23.330;2022-08-01T05:51:20;27.00;55.30
46562;DHT22;32289;42.688;23.330;2022-08-01T05:55:00;27.30;55.20
46562;DHT22;32289;42.688;23.330;2022-08-01T05:58:41;27.60;54.40
46562;DHT22;32289;42.688;23.330;2022-08-01T06:02:22;27.60;53.20
46562;DHT22;32289;42.688;23.330;2022-08-01T06:06:03;28.10;54.00
46562;DHT22;32289;42.688;23.330;2022-08-01T06:09:44;26.90;54.00
46562;DHT22;32289;42.688;23.330;2022-08-01T06:13:25;25.90;55.30
46562;DHT22;32289;42.688;23.330;2022-08-01T06:17:06;26.70;56.00
46562;DHT22;32289;42.688;23.330;2022-08-01T06:20:46;25.20;57.50
46562;DHT22;32289;42.688;23.330;2022-08-01T06:24:27;25.60;57.80
46562;DHT22;32289;42.688;23.330;2022-08-01T06:28:08;25.50;58.60
46562;DHT22;32289;42.688;23.330;2022-08-01T06:31:49;25.40;57.80
46562;DHT22;32289;42.688;23.330;2022-08-01T06:35:30;26.60;52.80
46562;DHT22;32289;42.688;23.330;2022-08-01T06:39:11;28.50;50.10
46562;DHT22;32289;42.688;23.330;2022-08-01T06:42:51;29.50;47.20
46562;DHT22;32289;42.688;23.330;2022-08-01T06:46:32;29.50;47.90
46562;DHT22;32289;42.688;23.330;2022-08-01T06:50:13;29.30;46.30
46562;DHT22;32289;42.688;23.330;2022-08-01T06:53:55;29.20;47.20
46562;DHT22;32289;42.688;23.330;2022-08-01T06:57:36;29.20;47.30
46562;DHT22;32289;42.688;23.330;2022-08-01T07:01:16;28.70;47.80
46562;DHT22;32289;42.688;23.330;2022-08-01T07:04:57;29.00;47.80
46562;DHT22;32289;42.688;23.330;2022-08-01T07:08:40;30.40;46.40
46562;DHT22;32289;42.688;23.330;2022-08-01T07:12:21;28.70;47.10
46562;DHT22;32289;42.688;23.330;2022-08-01T07:16:02;29.10;46.70
46562;DHT22;32289;42.688;23.330;2022-08-01T07:19:42;31.30;47.00
46562;DHT22;32289;42.688;23.330;2022-08-01T07:23:23;29.70;47.80
46562;DHT22;32289;42.688;23.330;2022-08-01T07:27:04;29.70;47.50
46562;DHT22;32289;42.688;23.330;2022-08-01T07:30:45;29.80;48.10
46562;DHT22;32289;42.688;23.330;2022-08-01T07:34:25;32.10;46.30
46562;DHT22;32289;42.688;23.330;2022-08-01T07:38:07;30.70;46.20
46562;DHT22;32289;42.688;23.330;2022-08-01T07:41:48;30.60;46.50
46562;DHT22;32289;42.688;23.330;2022-08-01T07:45:29;30.60;46.50
46562;DHT22;32289;42.688;23.330;2022-08-01T07:49:10;30.60;46.10
46562;DHT22;32289;42.688;23.330;2022-08-01T07:52:51;31.50;46.10
46562;DHT22;32289;42.688;23.330;2022-08-01T07:56:31;32.00;44.60
46562;DHT22;32289;42.688;23.330;2022-08-01T08:00:13;30.50;45.80
46562;DHT22;32289;42.688;23.330;2022-08-01T08:03:54;30.50;46.30
46562;DHT22;32289;42.688;23.330;2022-08-01T08:07:34;30.20;46.20
46562;DHT22;32289;42.688;23.330;2022-08-01T08:11:15;30.00;46.60
46562;DHT22;32289;42.688;23.330;2022-08-01T08:14:57;29.80;47.60
46562;DHT22;32289;42.688;23.330;2022-08-01T08:18:39;30.60;46.30
46562;DHT22;32289;42.688;23.330;2022-08-01T08:22:19;30.00;46.40
46562;DHT22;32289;42.688;23.330;2022-08-01T08:26:00;31.70;46.70
46562;DHT22;32289;42.688;23.330;2022-08-01T08:29:41;30.80;45.70
46562;DHT22;32289;42.688;23.330;2022-08-01T08:33:22;30.10;47.40
46562;DHT22;32289;42.688;23.330;2022-08-01T08:37:03;31.10;46.10
46562;DHT22;32289;42.688;23.330;2022-08-01T08:40:44;29.40;47.70
46562;DHT22;32289;42.688;23.330;2022-08-01T08:44:25;30.70;47.60
46562;DHT22;32289;42.688;23.330;2022-08-01T08:48:06;30.60;45.80
46562;DHT22;32289;42.688;23.330;2022-08-01T08:51:51;31.50;46.90
46562;DHT22;32289;42.688;23.330;2022-08-01T08:55:32;30.80;45.40
46562;DHT22;32289;42.688;23.330;2022-08-01T08:59:13;30.50;44.60
46562;DHT22;32289;42.688;23.330;2022-08-01T09:02:54;29.70;45.20
46562;DHT22;32289;42.688;23.330;2022-08-01T09:06:36;31.40;45.90
46562;DHT22;32289;42.688;23.330;2022-08-01T09:10:17;30.40;45.20
46562;DHT22;32289;42.688;23.330;2022-08-01T09:14:17;29.90;45.20
46562;DHT22;32289;42.688;23.330;2022-08-01T09:18:06;29.80;45.70
46562;DHT22;32289;42.688;23.330;2022-08-01T09:21:58;30.50;44.50
46562;DHT22;32289;42.688;23.330;2022-08-01T09:25:51;29.90;44.50
46562;DHT22;32289;42.688;23.330;2022-08-01T09:29:33;31.00;44.00
46562;DHT22;32289;42.688;23.330;2022-08-01T09:33:13;30.50;43.00
46562;DHT22;32289;42.688;23.330;2022-08-01T09:36:57;29.90;43.90
46562;DHT22;32289;42.688;23.330;2022-08-01T09:41:04;30.10;44.60
46562;DHT22;32289;42.688;23.330;2022-08-01T09:44:47;30.70;44.80
46562;DHT22;32289;42.688;23.330;2022-08-01T09:48:28;30.00;44.20
46562;DHT22;32289;42.688;23.330;2022-08-01T09:52:23;30.40;44.60
46562;DHT22;32289;42.688;23.330;2022-08-01T09:56:13;30.00;45.40
46562;DHT22;32289;42.688;23.330;2022-08-01T10:00:00;31.70;46.00
46562;DHT22;32289;42.688;23.330;2022-08-01T10:03:40;31.00;45.30
46562;DHT22;32289;42.688;23.330;2022-08-01T10:07:21;30.10;47.30
46562;DHT22;32289;42.688;23.330;2022-08-01T10:11:10;32.20;44.20
46562;DHT22;32289;42.688;23.330;2022-08-01T10:14:51;30.40;45.50
46562;DHT22;32289;42.688;23.330;2022-08-01T10:18:35;29.80;46.50
46562;DHT22;32289;42.688;23.330;2022-08-01T10:22:16;30.20;45.40
46562;DHT22;32289;42.688;23.330;2022-08-01T10:25:58;30.00;46.10
46562;DHT22;32289;42.688;23.330;2022-08-01T10:30:07;29.90;46.80
46562;DHT22;32289;42.688;23.330;2022-08-01T10:33:50;28.60;48.10
46562;DHT22;32289;42.688;23.330;2022-08-01T10:37:33;29.50;47.90
46562;DHT22;32289;42.688;23.330;2022-08-01T10:41:15;29.70;47.90
46562;DHT22;32289;42.688;23.330;2022-08-01T10:44:59;30.00;46.40
46562;DHT22;32289;42.688;23.330;2022-08-01T10:48:56;28.40;49.60
46562;DHT22;32289;42.688;23.330;2022-08-01T10:52:39;29.10;48.50
46562;DHT22;32289;42.688;23.330;2022-08-01T10:56:20;30.70;46.50
46562;DHT22;32289;42.688;23.330;2022-08-01T11:00:02;29.90;48.00
46562;DHT22;32289;42.688;23.330;2022-08-01T11:04:00;30.00;48.00
46562;DHT22;32289;42.688;23.330;2022-08-01T11:07:52;29.40;48.30
46562;DHT22;32289;42.688;23.330;2022-08-01T11:12:03;29.80;47.40
46562;DHT22;32289;42.688;23.330;2022-08-01T11:15:46;30.40;47.90
46562;DHT22;32289;42.688;23.330;2022-08-01T11:23:50;29.70;47.80
46562;DHT22;32289;42.688;23.330;2022-08-01T11:27:34;28.80;49.00
46562;DHT22;32289;42.688;23.330;2022-08-01T11:34:56;28.50;49.20
46562;DHT22;32289;42.688;23.330;2022-08-01T11:42:19;28.40;50.20
46562;DHT22;32289;42.688;23.330;2022-08-01T11:46:01;28.30;50.90
46562;DHT22;32289;42.688;23.330;2022-08-01T11:49:43;29.00;49.50
46562;DHT22;32289;42.688;23.330;2022-08-01T11:53:29;29.40;49.80
46562;DHT22;32289;42.688;23.330;2022-08-01T12:00:54;29.10;49.50
46562;DHT22;32289;42.688;23.330;2022-08-01T12:04:49;29.50;49.30
46562;DHT22;32289;42.688;23.330;2022-08-01T12:08:32;29.20;49.70
46562;DHT22;32289;42.688;23.330;2022-08-01T12:12:15;28.10;50.50
46562;DHT22;32289;42.688;23.330;2022-08-01T12:16:07;27.70;51.50
46562;DHT22;32289;42.688;23.330;2022-08-01T12:19:49;29.00;50.20
46562;DHT22;32289;42.688;23.330;2022-08-01T12:23:30;28.80;50.00
46562;DHT22;32289;42.688;23.330;2022-08-01T12:27:11;28.40;50.00
46562;DHT22;32289;42.688;23.330;2022-08-01T12:31:03;28.60;50.10
46562;DHT22;32289;42.688;23.330;2022-08-01T12:34:44;28.50;50.90
46562;DHT22;32289;42.688;23.330;2022-08-01T12:38:25;28.10;50.60
46562;DHT22;32289;42.688;23.330;2022-08-01T12:42:11;28.40;51.00
46562;DHT22;32289;42.688;23.330;2022-08-01T12:45:52;28.50;50.80
46562;DHT22;32289;42.688;23.330;2022-08-01T12:49:37;28.00;51.20
46562;DHT22;32289;42.688;23.330;2022-08-01T12:53:19;28.40;50.90
46562;DHT22;32289;42.688;23.330;2022-08-01T12:57:00;28.20;50.80
46562;DHT22;32289;42.688;23.330;2022-08-01T13:00:42;28.00;51.50
46562;DHT22;32289;42.688;23.330;2022-08-01T13:04:24;27.80;52.30
46562;DHT22;32289;42.688;23.330;2022-08-01T13:08:10;27.90;52.00
46562;DHT22;32289;42.688;23.330;2022-08-01T13:11:51;28.00;52.00
46562;DHT22;32289;42.688;23.330;2022-08-01T13:15:38;28.20;52.60
46562;DHT22;32289;42.688;23.330;2022-08-01T13:19:19;28.40;51.20
46562;DHT22;32289;42.688;23.330;2022-08-01T13:23:11;28.30;51.80
46562;DHT22;32289;42.688;23.330;2022-08-01T13:27:00;27.90;52.00
46562;DHT22;32289;42.688;23.330;2022-08-01T13:30:53;28.30;52.80
46562;DHT22;32289;42.688;23.330;2022-08-01T13:34:34;28.60;52.30
46562;DHT22;32289;42.688;23.330;2022-08-01T13:38:15;27.80;51.90
46562;DHT22;32289;42.688;23.330;2022-08-01T13:41:56;27.60;53.10
46562;DHT22;32289;42.688;23.330;2022-08-01T13:45:36;28.20;52.40
46562;DHT22;32289;42.688;23.330;2022-08-01T13:49:19;27.70;52.10
46562;DHT22;32289;42.688;23.330;2022-08-01T13:52:59;27.60;52.80
46562;DHT22;32289;42.688;23.330;2022-08-01T13:56:40;27.60;53.20
46562;DHT22;32289;42.688;23.330;2022-08-01T14:00:22;27.60;53.00
46562;DHT22;32289;42.688;23.330;2022-08-01T14:04:03;27.90;52.70
46562;DHT22;32289;42.688;23.330;2022-08-01T14:07:43;27.60;52.90
46562;DHT22;32289;42.688;23.330;2022-08-01T14:11:25;27.80;52.80
46562;DHT22;32289;42.688;23.330;2022-08-01T14:15:06;27.90;53.00
46562;DHT22;32289;42.688;23.330;2022-08-01T14:18:47;27.70;52.90
46562;DHT22;32289;42.688;23.330;2022-08-01T14:22:28;27.50;53.00
46562;DHT22;32289;42.688;23.330;2022-08-01T14:26:09;27.30;53.80
46562;DHT22;32289;42.688;23.330;2022-08-01T14:29:50;27.20;53.90
46562;DHT22;32289;42.688;23.330;2022-08-01T14:33:30;27.30;53.10
46562;DHT22;32289;42.688;23.330;2022-08-01T14:37:11;27.20;53.50
46562;DHT22;32289;42.688;23.330;2022-08-01T14:40:52;27.30;53.70
46562;DHT22;32289;42.688;23.330;2022-08-01T14:44:33;27.10;53.60
46562;DHT22;32289;42.688;23.330;2022-08-01T14:48:14;27.10;54.00
46562;DHT22;32289;42.688;23.330;2022-08-01T14:51:55;27.60;53.20
46562;DHT22;32289;42.688;23.330;2022-08-01T14:55:36;27.80;53.20
46562;DHT22;32289;42.688;23.330;2022-08-01T14:59:17;28.10;52.90
46562;DHT22;32289;42.688;23.330;2022-08-01T15:02:58;28.20;52.70
46562;DHT22;32289;42.688;23.330;2022-08-01T15:06:38;28.50;52.30
46562;DHT22;32289;42.688;23.330;2022-08-01T15:10:19;28.00;52.00
46562;DHT22;32289;42.688;23.330;2022-08-01T15:14:00;27.90;53.10
46562;DHT22;32289;42.688;23.330;2022-08-01T15:18:04;27.70;53.10
46562;DHT22;32289;42.688;23.330;2022-08-01T15:21:45;27.80;52.80
46562;DHT22;32289;42.688;23.330;2022-08-01T15:25:25;27.60;52.90
46562;DHT22;32289;42.688;23.330;2022-08-01T15:29:06;28.00;53.00
46562;DHT22;32289;42.688;23.330;2022-08-01T15:32:47;28.10;52.50
46562;DHT22;32289;42.688;23.330;2022-08-01T15:36:28;28.00;52.70
46562;DHT22;32289;42.688;23.330;2022-08-01T15:40:10;27.40;52.90
46562;DHT22;32289;42.688;23.330;2022-08-01T15:43:51;27.10;53.20
46562;DHT22;32289;42.688;23.330;2022-08-01T15:47:32;27.30;53.80
46562;DHT22;32289;42.688;23.330;2022-08-01T15:51:13;27.10;52.90
46562;DHT22;32289;42.688;23.330;2022-08-01T15:54:54;26.80;54.50
46562;DHT22;32289;42.688;23.330;2022-08-01T15:58:34;26.60;53.80
46562;DHT22;32289;42.688;23.330;2022-08-01T16:02:17;26.60;54.00
46562;DHT22;32289;42.688;23.330;2022-08-01T16:05:58;26.80;53.30
46562;DHT22;32289;42.688;23.330;2022-08-01T16:09:38;27.10;53.30
46562;DHT22;32289;42.688;23.330;2022-08-01T16:13:19;26.70;53.30
46562;DHT22;32289;42.688;23.330;2022-08-01T16:17:00;26.70;53.40
46562;DHT22;32289;42.688;23.330;2022-08-01T16:20:41;26.60;53.90
46562;DHT22;32289;42.688;23.330;2022-08-01T16:24:23;26.70;53.60
46562;DHT22;32289;42.688;23.330;2022-08-01T16:28:08;26.50;53.10
46562;DHT22;32289;42.688;23.330;2022-08-01T16:31:49;26.50;53.70
46562;DHT22;32289;42.688;23.330;2022-08-01T16:35:29;26.40;53.40
46562;DHT22;32289;42.688;23.330;2022-08-01T16:39:10;26.50;53.10
46562;DHT22;32289;42.688;23.330;2022-08-01T16:42:51;26.50;53.10
46562;DHT22;32289;42.688;23.330;2022-08-01T16:46:32;26.60;51.80
46562;DHT22;32289;42.688;23.330;2022-08-01T16:50:13;26.50;51.30
46562;DHT22;32289;42.688;23.330;2022-08-01T16:53:53;26.30;51.70
46562;DHT22;32289;42.688;23.330;2022-08-01T16:57:34;26.30;51.80
46562;DHT22;32289;42.688;23.330;2022-08-01T17:01:18;26.20;51.80
46562;DHT22;32289;42.688;23.330;2022-08-01T17:04:58;26.20;52.10
46562;DHT22;32289;42.688;23.330;2022-08-01T17:08:39;26.10;51.00
46562;DHT22;32289;42.688;23.330;2022-08-01T17:12:22;26.20;51.50
46562;DHT22;32289;42.688;23.330;2022-08-01T17:16:03;26.10;51.00
46562;DHT22;32289;42.688;23.330;2022-08-01T17:19:45;26.20;50.70
46562;DHT22;32289;42.688;23.330;2022-08-01T17:23:26;26.00;51.00
46562;DHT22;32289;42.688;23.330;2022-08-01T17:27:07;26.00;50.60
46562;DHT22;32289;42.688;23.330;2022-08-01T17:30:47;25.90;49.90
46562;DHT22;32289;42.688;23.330;2022-08-01T17:34:28;25.90;50.10
46562;DHT22;32289;42.688;23.330;2022-08-01T17:38:09;25.70;50.10
46562;DHT22;32289;42.688;23.330;2022-08-01T17:41:49;25.60;50.50
46562;DHT22;32289;42.688;23.330;2022-08-01T17:45:30;25.60;50.70
46562;DHT22;32289;42.688;23.330;2022-08-01T17:49:11;25.60;50.70
46562;DHT22;32289;42.688;23.330;2022-08-01T17:52:52;25.50;51.00
46562;DHT22;32289;42.688;23.330;2022-08-01T17:56:32;25.40;51.10
46562;DHT22;32289;42.688;23.330;2022-08-01T18:00:13;25.10;51.70
46562;DHT22;32289;42.688;23.330;2022-08-01T18:03:55;25.00;52.20
46562;DHT22;32289;42.688;23.330;2022-08-01T18:07:37;25.00;52.60
46562;DHT22;32289;42.688;23.330;2022-08-01T18:11:18;24.90;52.60
46562;DHT22;32289;42.688;23.330;2022-08-01T18:14:59;24.80;53.30
46562;DHT22;32289;42.688;23.330;2022-08-01T18:18:43;24.60;53.50
46562;DHT22;32289;42.688;23.330;2022-08-01T18:22:23;24.40;54.20
46562;DHT22;32289;42.688;23.330;2022-08-01T18:26:05;24.40;54.70
46562;DHT22;32289;42.688;23.330;2022-08-01T18:29:48;24.20;55.00
46562;DHT22;32289;42.688;23.330;2022-08-01T18:33:29;24.20;55.20
46562;DHT22;32289;42.688;23.330;2022-08-01T18:37:10;24.20;55.20
46562;DHT22;32289;42.688;23.330;2022-08-01T18:40:52;24.40;55.20
46562;DHT22;32289;42.688;23.330;2022-08-01T18:44:33;24.20;55.50
46562;DHT22;32289;42.688;23.330;2022-08-01T18:48:14;24.10;56.00
46562;DHT22;32289;42.688;23.330;2022-08-01T18:51:54;24.10;56.10
46562;DHT22;32289;42.688;23.330;2022-08-01T18:55:37;23.90;56.60
46562;DHT22;32289;42.688;23.330;2022-08-01T18:59:18;23.90;57.30
46562;DHT22;32289;42.688;23.330;2022-08-01T19:02:59;23.80;57.60
46562;DHT22;32289;42.688;23.330;2022-08-01T19:06:40;23.70;58.40
46562;DHT22;32289;42.688;23.330;2022-08-01T19:10:21;23.50;58.50
46562;DHT22;32289;42.688;23.330;2022-08-01T19:14:03;23.30;59.50
46562;DHT22;32289;42.688;23.330;2022-08-01T19:17:44;23.30;59.50
46562;DHT22;32289;42.688;23.330;2022-08-01T19:21:24;23.30;59.70
46562;DHT22;32289;42.688;23.330;2022-08-01T19:25:05;23.20;59.90
46562;DHT22;32289;42.688;23.330;2022-08-01T19:28:50;23.10;60.40
46562;DHT22;32289;42.688;23.330;2022-08-01T19:32:33;23.10;60.70
46562;DHT22;32289;42.688;23.330;2022-08-01T19:36:15;23.10;60.50
46562;DHT22;32289;42.688;23.330;2022-08-01T19:39:57;23.30;60.10
46562;DHT22;32289;42.688;23.330;2022-08-01T19:43:39;23.00;60.80
46562;DHT22;32289;42.688;23.330;2022-08-01T19:47:20;23.00;61.00
46562;DHT22;32289;42.688;23.330;2022-08-01T19:51:02;22.90;61.40
46562;DHT22;32289;42.688;23.330;2022-08-01T19:54:46;22.90;61.40
46562;DHT22;32289;42.688;23.330;2022-08-01T19:58:30;22.80;61.90
46562;DHT22;32289;42.688;23.330;2022-08-01T20:02:14;22.80;62.30
46562;DHT22;32289;42.688;23.330;2022-08-01T20:05:56;22.80;62.30
46562;DHT22;32289;42.688;23.330;2022-08-01T20:09:43;22.70;62.70
46562;DHT22;32289;42.688;23.330;2022-08-01T20:13:25;22.60;63.00
46562;DHT22;32289;42.688;23.330;2022-08-01T20:17:05;22.50;63.60
46562;DHT22;32289;42.688;23.330;2022-08-01T20:20:50;22.40;63.70
46562;DHT22;32289;42.688;23.330;2022-08-01T20:24:38;22.50;63.20
46562;DHT22;32289;42.688;23.330;2022-08-01T20:28:22;22.40;63.90
46562;DHT22;32289;42.688;23.330;2022-08-01T20:32:06;22.40;64.00
46562;DHT22;32289;42.688;23.330;2022-08-01T20:35:50;22.20;63.70
46562;DHT22;32289;42.688;23.330;2022-08-01T20:39:32;22.20;64.40
46562;DHT22;32289;42.688;23.330;2022-08-01T20:43:17;22.20;64.40
46562;DHT22;32289;42.688;23.330;2022-08-01T20:47:00;22.20;64.50
46562;DHT22;32289;42.688;23.330;2022-08-01T20:50:43;22.20;64.60
46562;DHT22;32289;42.688;23.330;2022-08-01T20:54:42;22.10;64.70
46562;DHT22;32289;42.688;23.330;2022-08-01T20:58:43;22.10;65.10
46562;DHT22;32289;42.688;23.330;2022-08-01T21:06:33;22.00;65.10
46562;DHT22;32289;42.688;23.330;2022-08-01T21:10:20;21.90;65.50
46562;DHT22;32289;42.688;23.330;2022-08-01T21:14:05;21.90;66.00
46562;DHT22;32289;42.688;23.330;2022-08-01T21:18:06;21.80;66.10
46562;DHT22;32289;42.688;23.330;2022-08-01T21:22:11;21.70;66.50
46562;DHT22;32289;42.688;23.330;2022-08-01T21:25:59;21.70;67.30
46562;DHT22;32289;42.688;23.330;2022-08-01T21:29:44;21.60;67.60
46562;DHT22;32289;42.688;23.330;2022-08-01T21:33:28;21.60;67.80
46562;DHT22;32289;42.688;23.330;2022-08-01T21:37:09;21.60;68.60
46562;DHT22;32289;42.688;23.330;2022-08-01T21:40:50;21.40;69.20
46562;DHT22;32289;42.688;23.330;2022-08-01T21:44:33;21.30;70.40
46562;DHT22;32289;42.688;23.330;2022-08-01T21:48:14;21.20;70.80
46562;DHT22;32289;42.688;23.330;2022-08-01T21:52:16;21.20;71.50
46562;DHT22;32289;42.688;23.330;2022-08-01T21:56:05;21.20;72.00
46562;DHT22;32289;42.688;23.330;2022-08-01T22:00:04;21.10;72.40
46562;DHT22;32289;42.688;23.330;2022-08-01T22:03:51;21.10;72.20
46562;DHT22;32289;42.688;23.330;2022-08-01T22:07:54;21.10;73.20
46562;DHT22;32289;42.688;23.330;2022-08-01T22:11:39;21.10;73.60
46562;DHT22;32289;42.688;23.330;2022-08-01T22:15:23;21.10;73.30
46562;DHT22;32289;42.688;23.330;2022-08-01T22:19:05;20.90;75.00
46562;DHT22;32289;42.688;23.330;2022-08-01T22:22:49;20.90;74.10
46562;DHT22;32289;42.688;23.330;2022-08-01T22:26:31;20.80;74.60
46562;DHT22;32289;42.688;23.330;2022-08-01T22:30:14;20.80;76.20
46562;DHT22;32289;42.688;23.330;2022-08-01T22:33:55;20.80;78.40
46562;DHT22;32289;42.688;23.330;2022-08-01T22:37:37;20.80;76.50
46562;DHT22;32289;42.688;23.330;2022-08-01T22:41:24;20.50;78.10
46562;DHT22;32289;42.688;23.330;2022-08-01T22:45:10;20.50;78.30
46562;DHT22;32289;42.688;23.330;2022-08-01T22:49:07;20.50;79.40
46562;DHT22;32289;42.688;23.330;2022-08-01T22:52:55;20.50;78.60
46562;DHT22;32289;42.688;23.330;2022-08-01T22:56:41;20.50;79.00
46562;DHT22;32289;42.688;23.330;2022-08-01T23:00:28;20.40;78.10
46562;DHT22;32289;42.688;23.330;2022-08-01T23:04:19;20.40;79.10
46562;DHT22;32289;42.688;23.330;2022-08-01T23:08:03;20.40;78.70
46562;DHT22;32289;42.688;23.330;2022-08-01T23:11:45;20.40;79.10
46562;DHT22;32289;42.688;23.330;2022-08-01T23:15:26;20.30;78.50
46562;DHT22;32289;42.688;23.330;2022-08-01T23:19:08;20.20;78.80
46562;DHT22;32289;42.688;23.330;2022-08-01T23:22:50;20.10;80.50
46562;DHT22;32289;42.688;23.330;2022-08-01T23:26:31;20.10;81.30
46562;DHT22;32289;42.688;23.330;2022-08-01T23:30:13;20.00;81.60
46562;DHT22;32289;42.688;23.330;2022-08-01T23:33:53;20.00;81.20
46562;DHT22;32289;42.688;23.330;2022-08-01T23:37:34;20.00;84.70